createdAt,value
2019-01-22T00:00:03.170Z,0
2019-01-22T00:01:13.201Z,0
2019-01-22T00:02:22.965Z,0
2019-01-22T00:03:32.970Z,0
2019-01-22T00:04:43.051Z,0
2019-01-22T00:05:53.074Z,0
2019-01-22T00:07:03.123Z,0
2019-01-22T00:08:13.136Z,0
2019-01-22T00:09:23.162Z,0
2019-01-22T00:10:33.023Z,0
2019-01-22T00:11:43.038Z,0
2019-01-22T00:12:53.416Z,0
2019-01-22T00:14:04.277Z,0
2019-01-22T00:15:15.483Z,0
2019-01-22T00:16:26.189Z,0
2019-01-22T00:17:36.366Z,0
2019-01-22T00:18:46.386Z,0
2019-01-22T00:19:56.417Z,0
2019-01-22T00:21:06.465Z,0
2019-01-22T00:22:16.546Z,0
2019-01-22T00:23:26.564Z,0
2019-01-22T00:24:36.596Z,0
2019-01-22T00:25:46.616Z,0
2019-01-22T00:26:56.645Z,0
2019-01-22T00:28:06.437Z,0
2019-01-22T00:29:16.452Z,0
2019-01-22T00:30:26.475Z,0
2019-01-22T00:31:36.512Z,0
2019-01-22T00:32:46.538Z,0
2019-01-22T00:33:56.665Z,0
2019-01-22T00:35:06.682Z,0
2019-01-22T00:36:16.697Z,0
2019-01-22T00:37:26.715Z,0
2019-01-22T00:38:36.722Z,0
2019-01-22T00:39:46.850Z,0
2019-01-22T00:40:56.903Z,0
2019-01-22T00:42:06.916Z,0
2019-01-22T00:43:16.936Z,0
2019-01-22T00:44:26.948Z,0
2019-01-22T00:45:37.039Z,0
2019-01-22T00:46:47.057Z,0
2019-01-22T00:47:57.074Z,0
2019-01-22T00:49:07.084Z,0
2019-01-22T00:50:17.116Z,0
2019-01-22T00:51:26.941Z,0
2019-01-22T00:52:36.715Z,0
2019-01-22T00:53:46.737Z,0
2019-01-22T00:54:56.758Z,0
2019-01-22T00:56:06.638Z,0
2019-01-22T00:57:17.022Z,0
2019-01-22T00:58:27.865Z,0
2019-01-22T00:59:38.739Z,0
2019-01-22T01:00:49.423Z,0
2019-01-22T01:01:59.719Z,0
2019-01-22T01:03:09.777Z,0
2019-01-22T01:04:19.808Z,0
2019-01-22T01:05:29.821Z,0
2019-01-22T01:06:39.837Z,0
2019-01-22T01:07:49.858Z,0
2019-01-22T01:08:59.971Z,0
2019-01-22T01:10:10.020Z,0
2019-01-22T01:11:20.051Z,0
2019-01-22T01:12:30.103Z,0
2019-01-22T01:13:40.170Z,0
2019-01-22T01:14:50.287Z,0
2019-01-22T01:16:00.313Z,0
2019-01-22T01:17:10.337Z,0
2019-01-22T01:18:20.362Z,0
2019-01-22T01:19:30.393Z,0
2019-01-22T01:20:40.505Z,0
2019-01-22T01:21:50.519Z,0
2019-01-22T01:23:00.532Z,0
2019-01-22T01:24:10.541Z,0
2019-01-22T01:25:20.561Z,0
2019-01-22T01:26:30.692Z,0
2019-01-22T01:27:40.708Z,0
2019-01-22T01:28:50.737Z,0
2019-01-22T01:30:00.780Z,0
2019-01-22T01:31:10.807Z,0
2019-01-22T01:32:20.822Z,0
2019-01-22T01:33:30.836Z,0
2019-01-22T01:34:40.841Z,0
2019-01-22T01:35:50.864Z,0
2019-01-22T01:37:00.864Z,0
2019-01-22T01:38:10.943Z,0
2019-01-22T01:39:20.950Z,0
2019-01-22T01:40:30.973Z,0
2019-01-22T01:41:40.987Z,0
2019-01-22T01:42:51.013Z,0
2019-01-22T01:44:01.157Z,0
2019-01-22T01:45:11.452Z,0
2019-01-22T01:46:22.528Z,0
2019-01-22T01:47:33.546Z,0
2019-01-22T01:48:44.288Z,0
2019-01-22T01:49:54.453Z,0
2019-01-22T01:51:04.478Z,0
2019-01-22T01:52:14.501Z,0
2019-01-22T01:53:30.777Z,0
2019-01-22T01:54:40.786Z,0
2019-01-22T01:55:50.911Z,0
2019-01-22T01:57:00.933Z,0
2019-01-22T01:58:10.964Z,0
2019-01-22T01:59:20.987Z,0
2019-01-22T02:00:31.025Z,0
2019-01-22T02:01:41.043Z,0
2019-01-22T02:02:51.068Z,0
2019-01-22T02:04:01.114Z,0
2019-01-22T02:05:10.880Z,0
2019-01-22T02:06:20.913Z,0
2019-01-22T02:07:31.030Z,0
2019-01-22T02:08:41.060Z,0
2019-01-22T02:09:51.100Z,0
2019-01-22T02:11:01.112Z,0
2019-01-22T02:12:11.139Z,0
2019-01-22T02:13:21.223Z,0
2019-01-22T02:14:31.254Z,0
2019-01-22T02:15:41.300Z,0
2019-01-22T02:16:51.331Z,0
2019-01-22T02:18:01.354Z,0
2019-01-22T02:19:11.415Z,0
2019-01-22T02:20:21.426Z,0
2019-01-22T02:21:31.456Z,0
2019-01-22T02:22:41.471Z,0
2019-01-22T02:23:51.491Z,0
2019-01-22T02:25:01.610Z,0
2019-01-22T02:26:11.929Z,0
2019-01-22T02:27:22.663Z,0
2019-01-22T02:28:33.545Z,0
2019-01-22T02:29:43.797Z,0
2019-01-22T02:30:54.126Z,0
2019-01-22T02:32:04.207Z,0
2019-01-22T02:33:13.986Z,0
2019-01-22T02:34:23.992Z,0
2019-01-22T02:35:34.007Z,0
2019-01-22T02:36:44.144Z,0
2019-01-22T02:37:54.165Z,0
2019-01-22T02:39:04.176Z,0
2019-01-22T02:40:14.207Z,0
2019-01-22T02:41:24.221Z,0
2019-01-22T02:42:34.313Z,0
2019-01-22T02:43:44.118Z,0
2019-01-22T02:44:54.146Z,0
2019-01-22T02:46:04.160Z,0
2019-01-22T02:47:14.174Z,0
2019-01-22T02:48:24.310Z,0
2019-01-22T02:49:34.370Z,0
2019-01-22T02:50:44.156Z,0
2019-01-22T02:51:54.235Z,0
2019-01-22T02:53:04.264Z,0
2019-01-22T02:54:14.155Z,0
2019-01-22T02:55:24.163Z,0
2019-01-22T02:56:34.181Z,0
2019-01-22T02:57:44.200Z,0
2019-01-22T02:58:54.212Z,0
2019-01-22T03:00:04.291Z,0
2019-01-22T03:01:14.306Z,0
2019-01-22T03:02:24.333Z,0
2019-01-22T03:03:34.358Z,0
2019-01-22T03:04:44.133Z,0
2019-01-22T03:05:54.203Z,0
2019-01-22T03:07:04.220Z,0
2019-01-22T03:08:14.265Z,0
2019-01-22T03:09:25.306Z,0
2019-01-22T03:10:36.270Z,0
2019-01-22T03:11:47.046Z,0
2019-01-22T03:12:57.223Z,0
2019-01-22T03:14:07.235Z,0
2019-01-22T03:15:17.263Z,0
2019-01-22T03:16:27.052Z,0
2019-01-22T03:17:37.339Z,0
2019-01-22T03:18:47.375Z,0
2019-01-22T03:19:57.425Z,0
2019-01-22T03:21:07.441Z,0
2019-01-22T03:22:17.483Z,0
2019-01-22T03:23:27.606Z,0
2019-01-22T03:24:37.620Z,0
2019-01-22T03:25:47.649Z,0
2019-01-22T03:26:57.689Z,0
2019-01-22T03:28:07.731Z,0
2019-01-22T03:29:17.741Z,0
2019-01-22T03:30:27.771Z,0
2019-01-22T03:31:37.831Z,0
2019-01-22T03:32:47.875Z,0
2019-01-22T03:33:57.908Z,0
2019-01-22T03:35:07.960Z,0
2019-01-22T03:36:17.958Z,0
2019-01-22T03:37:27.965Z,0
2019-01-22T03:38:37.978Z,0
2019-01-22T03:39:47.977Z,0
2019-01-22T03:40:57.825Z,0
2019-01-22T03:42:07.845Z,0
2019-01-22T03:43:17.873Z,0
2019-01-22T03:44:27.879Z,0
2019-01-22T03:45:37.882Z,0
2019-01-22T03:46:47.898Z,0
2019-01-22T03:47:58.151Z,0
2019-01-22T03:49:09.193Z,0
2019-01-22T03:50:19.817Z,0
2019-01-22T03:51:30.045Z,0
2019-01-22T03:52:40.110Z,0
2019-01-22T03:53:56.137Z,0
2019-01-22T03:55:06.127Z,0
2019-01-22T03:56:16.127Z,0
2019-01-22T03:57:26.130Z,0
2019-01-22T03:58:36.233Z,0
2019-01-22T03:59:45.985Z,0
2019-01-22T04:00:55.992Z,0
2019-01-22T04:02:05.993Z,0
2019-01-22T04:03:15.988Z,0
2019-01-22T04:04:26.069Z,0
2019-01-22T04:05:36.060Z,0
2019-01-22T04:06:46.054Z,0
2019-01-22T04:07:56.052Z,0
2019-01-22T04:09:06.050Z,0
2019-01-22T04:10:16.097Z,0
2019-01-22T04:11:26.091Z,0
2019-01-22T04:12:36.110Z,0
2019-01-22T04:13:46.101Z,0
2019-01-22T04:14:56.101Z,0
2019-01-22T04:16:06.202Z,0
2019-01-22T04:17:16.190Z,0
2019-01-22T04:18:26.190Z,0
2019-01-22T04:19:36.183Z,0
2019-01-22T04:20:46.189Z,0
2019-01-22T04:21:55.985Z,0
2019-01-22T04:23:06.302Z,0
2019-01-22T04:24:17.181Z,0
2019-01-22T04:25:28.007Z,0
2019-01-22T04:26:38.425Z,0
2019-01-22T04:27:48.532Z,0
2019-01-22T04:28:58.535Z,0
2019-01-22T04:30:08.539Z,0
2019-01-22T04:31:18.565Z,0
2019-01-22T04:32:28.574Z,0
2019-01-22T04:33:38.680Z,0
2019-01-22T04:34:48.672Z,0
2019-01-22T04:35:58.666Z,0
2019-01-22T04:37:08.660Z,0
2019-01-22T04:38:18.677Z,0
2019-01-22T04:39:28.777Z,0
2019-01-22T04:40:38.789Z,0
2019-01-22T04:41:48.787Z,0
2019-01-22T04:42:58.781Z,0
2019-01-22T04:44:08.774Z,0
2019-01-22T04:45:20.534Z,0
2019-01-22T04:46:30.567Z,0
2019-01-22T04:47:40.320Z,0
2019-01-22T04:48:50.378Z,0
2019-01-22T04:50:00.377Z,0
2019-01-22T04:51:10.483Z,0
2019-01-22T04:52:20.486Z,0
2019-01-22T04:53:30.480Z,0
2019-01-22T04:54:40.150Z,0
2019-01-22T04:55:50.156Z,0
2019-01-22T04:57:00.216Z,0
2019-01-22T04:58:10.231Z,0
2019-01-22T04:59:20.841Z,0
2019-01-22T05:00:32.054Z,0
2019-01-22T05:01:42.712Z,0
2019-01-22T05:02:52.921Z,0
2019-01-22T05:04:02.937Z,0
2019-01-22T05:05:12.935Z,0
2019-01-22T05:06:22.940Z,0
2019-01-22T05:07:32.951Z,0
2019-01-22T05:08:43.040Z,0
2019-01-22T05:09:53.036Z,0
2019-01-22T05:11:03.071Z,0
2019-01-22T05:12:13.078Z,0
2019-01-22T05:13:23.079Z,0
2019-01-22T05:14:32.934Z,0
2019-01-22T05:15:42.935Z,0
2019-01-22T05:16:52.934Z,0
2019-01-22T05:18:02.937Z,0
2019-01-22T05:19:12.932Z,0
2019-01-22T05:20:22.982Z,0
2019-01-22T05:21:32.988Z,0
2019-01-22T05:22:43.008Z,0
2019-01-22T05:23:53.002Z,0
2019-01-22T05:25:03.021Z,0
2019-01-22T05:26:13.065Z,0
2019-01-22T05:27:23.072Z,0
2019-01-22T05:28:33.073Z,0
2019-01-22T05:29:43.098Z,0
2019-01-22T05:30:53.107Z,0
2019-01-22T05:32:03.216Z,0
2019-01-22T05:33:13.293Z,0
2019-01-22T05:34:23.305Z,0
2019-01-22T05:35:33.685Z,0
2019-01-22T05:36:44.624Z,0
2019-01-22T05:37:55.470Z,0
2019-01-22T05:39:05.770Z,0
2019-01-22T05:40:16.005Z,0
2019-01-22T05:41:26.014Z,0
2019-01-22T05:42:36.018Z,0
2019-01-22T05:43:46.066Z,0
2019-01-22T05:44:56.056Z,0
2019-01-22T05:46:06.060Z,0
2019-01-22T05:47:16.067Z,0
2019-01-22T05:48:26.106Z,0
2019-01-22T05:49:36.153Z,0
2019-01-22T05:50:46.154Z,0
2019-01-22T05:51:56.146Z,0
2019-01-22T05:53:06.128Z,0
2019-01-22T05:54:16.108Z,0
2019-01-22T05:55:32.885Z,0
2019-01-22T05:56:42.866Z,0
2019-01-22T05:57:52.858Z,0
2019-01-22T05:59:02.839Z,0
2019-01-22T06:00:12.820Z,0
2019-01-22T06:01:22.805Z,0
2019-01-22T06:02:32.787Z,0
2019-01-22T06:03:42.766Z,0
2019-01-22T06:04:52.742Z,0
2019-01-22T06:06:02.722Z,0
2019-01-22T06:07:12.810Z,0
2019-01-22T06:08:22.792Z,0
2019-01-22T06:09:32.777Z,0
2019-01-22T06:10:42.758Z,0
2019-01-22T06:11:52.746Z,0
2019-01-22T06:13:02.827Z,0
2019-01-22T06:14:12.809Z,0
2019-01-22T06:15:22.791Z,0
2019-01-22T06:16:32.772Z,0
2019-01-22T06:17:42.754Z,0
2019-01-22T06:18:52.511Z,0
2019-01-22T06:20:02.701Z,0
2019-01-22T06:21:12.684Z,0
2019-01-22T06:22:22.691Z,0
2019-01-22T06:23:32.682Z,0
2019-01-22T06:24:42.728Z,0
2019-01-22T06:25:56.575Z,0
2019-01-22T06:27:06.557Z,0
2019-01-22T06:28:16.577Z,0
2019-01-22T06:29:26.560Z,0
2019-01-22T06:30:36.590Z,0
2019-01-22T06:31:46.575Z,0
2019-01-22T06:32:56.549Z,0
2019-01-22T06:34:06.528Z,0
2019-01-22T06:35:16.515Z,0
2019-01-22T06:36:26.630Z,0
2019-01-22T06:37:36.626Z,0
2019-01-22T06:38:46.607Z,0
2019-01-22T06:39:56.590Z,0
2019-01-22T06:41:06.569Z,0
2019-01-22T06:42:16.599Z,0
2019-01-22T06:43:26.580Z,0
2019-01-22T06:44:36.561Z,0
2019-01-22T06:45:46.557Z,0
2019-01-22T06:46:56.537Z,0
2019-01-22T06:48:06.565Z,0
2019-01-22T06:49:16.554Z,0
2019-01-22T06:50:26.534Z,0
2019-01-22T06:51:36.518Z,0
2019-01-22T06:52:46.496Z,0
2019-01-22T06:53:56.578Z,0
2019-01-22T06:55:06.587Z,0
2019-01-22T06:56:16.570Z,0
2019-01-22T06:57:26.553Z,0
2019-01-22T06:58:36.529Z,0
2019-01-22T06:59:46.568Z,0
2019-01-22T07:00:56.564Z,0
2019-01-22T07:02:06.611Z,0
2019-01-22T07:03:16.589Z,0
2019-01-22T07:04:26.567Z,0
2019-01-22T07:05:36.694Z,4
2019-01-22T07:06:46.677Z,4
2019-01-22T07:07:56.657Z,4
2019-01-22T07:09:06.643Z,0
2019-01-22T07:10:18.028Z,0
2019-01-22T07:11:27.931Z,4
2019-01-22T07:12:37.920Z,4
2019-01-22T07:13:47.905Z,4
2019-01-22T07:14:57.893Z,4
2019-01-22T07:16:07.879Z,4
2019-01-22T07:17:17.959Z,4
2019-01-22T07:18:27.937Z,8
2019-01-22T07:19:37.920Z,4
2019-01-22T07:20:47.906Z,8
2019-01-22T07:21:57.895Z,8
2019-01-22T07:23:07.994Z,12
2019-01-22T07:24:17.976Z,12
2019-01-22T07:25:27.954Z,12
2019-01-22T07:26:37.939Z,12
2019-01-22T07:27:47.942Z,16
2019-01-22T07:28:57.976Z,20
2019-01-22T07:30:07.633Z,20
2019-01-22T07:31:17.613Z,24
2019-01-22T07:32:27.594Z,28
2019-01-22T07:33:37.321Z,32
2019-01-22T07:34:47.399Z,36
2019-01-22T07:35:57.374Z,40
2019-01-22T07:37:07.349Z,44
2019-01-22T07:38:17.329Z,48
2019-01-22T07:39:27.307Z,52
2019-01-22T07:40:37.436Z,60
2019-01-22T07:41:47.411Z,68
2019-01-22T07:42:57.450Z,72
2019-01-22T07:44:07.437Z,80
2019-01-22T07:45:17.425Z,88
2019-01-22T07:46:27.554Z,100
2019-01-22T07:47:37.544Z,108
2019-01-22T07:48:47.535Z,120
2019-01-22T07:49:57.511Z,128
2019-01-22T07:51:07.486Z,144
2019-01-22T07:52:17.516Z,152
2019-01-22T07:53:27.499Z,164
2019-01-22T07:54:37.484Z,172
2019-01-22T07:55:47.460Z,184
2019-01-22T07:56:57.444Z,192
2019-01-22T07:58:07.519Z,208
2019-01-22T07:59:17.494Z,220
2019-01-22T08:00:27.470Z,240
2019-01-22T08:01:37.453Z,252
2019-01-22T08:02:47.428Z,272
2019-01-22T08:03:57.500Z,292
2019-01-22T08:05:07.474Z,308
2019-01-22T08:06:17.488Z,332
2019-01-22T08:07:27.461Z,352
2019-01-22T08:08:37.436Z,364
2019-01-22T08:09:47.582Z,380
2019-01-22T08:10:57.562Z,396
2019-01-22T08:12:08.083Z,416
2019-01-22T08:13:18.061Z,436
2019-01-22T08:14:28.073Z,452
2019-01-22T08:15:38.199Z,476
2019-01-22T08:16:48.301Z,496
2019-01-22T08:17:58.275Z,524
2019-01-22T08:19:08.283Z,560
2019-01-22T08:20:18.258Z,592
2019-01-22T08:21:28.336Z,632
2019-01-22T08:22:38.313Z,656
2019-01-22T08:23:48.289Z,676
2019-01-22T08:25:03.047Z,684
2019-01-22T08:26:13.026Z,692
2019-01-22T08:27:23.055Z,704
2019-01-22T08:28:37.284Z,732
2019-01-22T08:29:47.269Z,756
2019-01-22T08:30:56.991Z,780
2019-01-22T08:32:06.997Z,804
2019-01-22T08:33:17.030Z,840
2019-01-22T08:34:27.011Z,888
2019-01-22T08:35:36.991Z,944
2019-01-22T08:36:46.653Z,1004
2019-01-22T08:37:56.630Z,1052
2019-01-22T08:39:06.711Z,1096
2019-01-22T08:40:16.691Z,1120
2019-01-22T08:41:26.667Z,1164
2019-01-22T08:42:36.643Z,1248
2019-01-22T08:43:46.623Z,1320
2019-01-22T08:44:56.752Z,1368
2019-01-22T08:46:06.730Z,1404
2019-01-22T08:47:16.707Z,1444
2019-01-22T08:48:26.693Z,1492
2019-01-22T08:49:36.672Z,1536
2019-01-22T08:50:46.749Z,1596
2019-01-22T08:51:56.482Z,1676
2019-01-22T08:53:07.319Z,1740
2019-01-22T08:54:17.326Z,1804
2019-01-22T08:55:27.302Z,1876
2019-01-22T08:56:37.285Z,1944
2019-01-22T08:57:47.261Z,1964
2019-01-22T08:58:57.244Z,1984
2019-01-22T09:00:07.232Z,2000
2019-01-22T09:01:17.230Z,2012
2019-01-22T09:02:27.271Z,2016
2019-01-22T09:03:37.254Z,2020
2019-01-22T09:04:47.239Z,1988
2019-01-22T09:05:57.217Z,1944
2019-01-22T09:07:07.198Z,1928
2019-01-22T09:08:17.273Z,1944
2019-01-22T09:09:27.250Z,1984
2019-01-22T09:10:37.231Z,2036
2019-01-22T09:11:47.206Z,2084
2019-01-22T09:12:57.186Z,2116
2019-01-22T09:14:07.313Z,2132
2019-01-22T09:15:17.290Z,2152
2019-01-22T09:16:27.264Z,2172
2019-01-22T09:17:37.247Z,2160
2019-01-22T09:18:47.922Z,2144
2019-01-22T09:19:57.903Z,2136
2019-01-22T09:21:07.949Z,2132
2019-01-22T09:22:17.928Z,2140
2019-01-22T09:23:27.908Z,2164
2019-01-22T09:24:37.884Z,2184
2019-01-22T09:25:47.964Z,2180
2019-01-22T09:26:57.944Z,2188
2019-01-22T09:28:07.948Z,2204
2019-01-22T09:29:17.924Z,2224
2019-01-22T09:30:27.922Z,2236
2019-01-22T09:31:37.950Z,2252
2019-01-22T09:32:47.928Z,2268
2019-01-22T09:33:57.909Z,2296
2019-01-22T09:35:10.563Z,2328
2019-01-22T09:36:20.671Z,2368
2019-01-22T09:37:30.646Z,2392
2019-01-22T09:38:40.624Z,2412
2019-01-22T09:39:51.683Z,2464
2019-01-22T09:41:01.663Z,2516
2019-01-22T09:42:11.646Z,2560
2019-01-22T09:43:21.678Z,2612
2019-01-22T09:44:31.654Z,2672
2019-01-22T09:45:41.683Z,2716
2019-01-22T09:46:51.667Z,2752
2019-01-22T09:48:01.663Z,2780
2019-01-22T09:49:11.790Z,2844
2019-01-22T09:50:21.768Z,2908
2019-01-22T09:51:31.755Z,2952
2019-01-22T09:52:41.733Z,2972
2019-01-22T09:53:51.470Z,2992
2019-01-22T09:55:01.499Z,3024
2019-01-22T09:56:11.478Z,3068
2019-01-22T09:57:21.456Z,3112
2019-01-22T09:58:31.444Z,3148
2019-01-22T09:59:41.429Z,3148
2019-01-22T10:00:51.472Z,3132
2019-01-22T10:02:01.449Z,3100
2019-01-22T10:03:11.176Z,3072
2019-01-22T10:04:21.158Z,3064
2019-01-22T10:05:31.270Z,3092
2019-01-22T10:06:41.291Z,3128
2019-01-22T10:07:51.271Z,3168
2019-01-22T10:09:01.251Z,3212
2019-01-22T10:10:11.229Z,3256
2019-01-22T10:11:21.210Z,3300
2019-01-22T10:12:31.339Z,3332
2019-01-22T10:13:47.824Z,3360
2019-01-22T10:14:58.007Z,3368
2019-01-22T10:16:07.985Z,3380
2019-01-22T10:17:17.970Z,3392
2019-01-22T10:18:28.107Z,3396
2019-01-22T10:19:37.761Z,3416
2019-01-22T10:20:47.739Z,3432
2019-01-22T10:21:57.733Z,3456
2019-01-22T10:23:07.716Z,3476
2019-01-22T10:24:17.745Z,3508
2019-01-22T10:25:34.162Z,3532
2019-01-22T10:26:44.139Z,3552
2019-01-22T10:27:54.122Z,3576
2019-01-22T10:29:04.102Z,3616
2019-01-22T10:30:14.080Z,3668
2019-01-22T10:31:24.058Z,3712
2019-01-22T10:32:34.082Z,3756
2019-01-22T10:33:44.060Z,3780
2019-01-22T10:34:54.077Z,3788
2019-01-22T10:36:03.905Z,3800
2019-01-22T10:37:13.890Z,3832
2019-01-22T10:38:23.919Z,3880
2019-01-22T10:39:33.897Z,3908
2019-01-22T10:40:43.625Z,3972
2019-01-22T10:41:53.704Z,4052
2019-01-22T10:43:09.124Z,4116
2019-01-22T10:44:19.414Z,4208
2019-01-22T10:45:29.391Z,4356
2019-01-22T10:46:39.377Z,4464
2019-01-22T10:47:49.359Z,4388
2019-01-22T10:48:59.343Z,4228
2019-01-22T10:50:09.328Z,4124
2019-01-22T10:51:19.310Z,4060
2019-01-22T10:52:29.299Z,4008
2019-01-22T10:53:39.378Z,3924
2019-01-22T10:54:49.359Z,3824
2019-01-22T10:55:59.338Z,3764
2019-01-22T10:57:09.326Z,3716
2019-01-22T10:58:19.313Z,3656
2019-01-22T10:59:29.537Z,3588
2019-01-22T11:00:39.515Z,3540
2019-01-22T11:01:49.502Z,3512
2019-01-22T11:02:59.480Z,3500
2019-01-22T11:04:09.454Z,3480
2019-01-22T11:05:19.542Z,3476
2019-01-22T11:06:29.270Z,3492
2019-01-22T11:07:39.286Z,3524
2019-01-22T11:08:49.268Z,3564
2019-01-22T11:09:59.244Z,3596
2019-01-22T11:11:09.324Z,3600
2019-01-22T11:12:19.302Z,3620
2019-01-22T11:13:29.279Z,3632
2019-01-22T11:14:39.269Z,3644
2019-01-22T11:15:49.251Z,3648
2019-01-22T11:16:59.331Z,3660
2019-01-22T11:18:09.316Z,3652
2019-01-22T11:19:19.300Z,3636
2019-01-22T11:20:29.285Z,3624
2019-01-22T11:21:39.271Z,3668
2019-01-22T11:22:49.257Z,3696
2019-01-22T11:23:59.251Z,3752
2019-01-22T11:25:09.232Z,3784
2019-01-22T11:26:19.213Z,3796
2019-01-22T11:27:29.192Z,3868
2019-01-22T11:28:39.180Z,3932
2019-01-22T11:29:49.162Z,3940
2019-01-22T11:30:59.150Z,3960
2019-01-22T11:32:09.136Z,3944
2019-01-22T11:33:19.121Z,3908
2019-01-22T11:34:29.098Z,3916
2019-01-22T11:35:39.077Z,3916
2019-01-22T11:36:49.053Z,3948
2019-01-22T11:37:59.036Z,3960
2019-01-22T11:39:09.013Z,4032
2019-01-22T11:40:18.989Z,4132
2019-01-22T11:41:28.970Z,4252
2019-01-22T11:42:38.957Z,4372
2019-01-22T11:43:48.609Z,4500
2019-01-22T11:44:58.596Z,4560
2019-01-22T11:46:08.594Z,4620
2019-01-22T11:47:18.579Z,4668
2019-01-22T11:48:28.557Z,4664
2019-01-22T11:49:38.540Z,4644
2019-01-22T11:50:48.524Z,4692
2019-01-22T11:51:58.554Z,4800
2019-01-22T11:53:08.536Z,4860
2019-01-22T11:54:18.517Z,4880
2019-01-22T11:55:28.496Z,4836
2019-01-22T11:56:38.470Z,4712
2019-01-22T11:57:48.649Z,4536
2019-01-22T11:58:58.626Z,4460
2019-01-22T12:00:08.609Z,4536
2019-01-22T12:01:18.598Z,4512
2019-01-22T12:02:34.533Z,4464
2019-01-22T12:03:44.562Z,4448
2019-01-22T12:04:54.552Z,4388
2019-01-22T12:06:04.537Z,4376
2019-01-22T12:07:14.530Z,4336
2019-01-22T12:08:24.509Z,4220
2019-01-22T12:09:34.542Z,4068
2019-01-22T12:10:44.529Z,3996
2019-01-22T12:11:54.517Z,3948
2019-01-22T12:13:04.503Z,3876
2019-01-22T12:14:14.489Z,3872
2019-01-22T12:15:25.208Z,3884
2019-01-22T12:16:35.350Z,3876
2019-01-22T12:17:45.345Z,3880
2019-01-22T12:18:55.333Z,3844
2019-01-22T12:20:08.574Z,3860
2019-01-22T12:21:18.708Z,3880
2019-01-22T12:22:29.892Z,3864
2019-01-22T12:23:39.904Z,3752
2019-01-22T12:24:49.887Z,3792
2019-01-22T12:26:04.257Z,3848
2019-01-22T12:27:14.341Z,3840
2019-01-22T12:28:24.320Z,3832
2019-01-22T12:29:34.300Z,3932
2019-01-22T12:30:44.288Z,3980
2019-01-22T12:31:54.266Z,4056
2019-01-22T12:33:04.304Z,4096
2019-01-22T12:34:14.282Z,4048
2019-01-22T12:35:24.266Z,4000
2019-01-22T12:36:34.252Z,3960
2019-01-22T12:37:44.238Z,3884
2019-01-22T12:38:54.273Z,3904
2019-01-22T12:40:04.256Z,3916
2019-01-22T12:41:14.240Z,3872
2019-01-22T12:42:24.219Z,3860
2019-01-22T12:43:34.208Z,3752
2019-01-22T12:44:44.291Z,3536
2019-01-22T12:45:54.277Z,3460
2019-01-22T12:47:04.260Z,3504
2019-01-22T12:48:14.244Z,3448
2019-01-22T12:49:24.230Z,3348
2019-01-22T12:50:34.285Z,3304
2019-01-22T12:51:44.272Z,3304
2019-01-22T12:52:54.251Z,3244
2019-01-22T12:54:04.234Z,3224
2019-01-22T12:55:14.225Z,3204
2019-01-22T12:56:24.263Z,3084
2019-01-22T12:57:34.247Z,2960
2019-01-22T12:58:44.228Z,2860
2019-01-22T12:59:54.206Z,2824
2019-01-22T13:01:03.934Z,2720
2019-01-22T13:02:13.729Z,2648
2019-01-22T13:03:23.713Z,2604
2019-01-22T13:04:33.703Z,2556
2019-01-22T13:05:43.681Z,2444
2019-01-22T13:06:53.667Z,2300
2019-01-22T13:08:03.748Z,2196
2019-01-22T13:09:13.726Z,2156
2019-01-22T13:10:23.711Z,2144
2019-01-22T13:11:33.693Z,2068
2019-01-22T13:12:43.706Z,2016
2019-01-22T13:13:53.788Z,1928
2019-01-22T13:15:03.521Z,1876
2019-01-22T13:16:13.501Z,1892
2019-01-22T13:17:23.481Z,1928
2019-01-22T13:18:33.462Z,1948
2019-01-22T13:19:43.552Z,1956
2019-01-22T13:20:53.529Z,1896
2019-01-22T13:22:03.511Z,1784
2019-01-22T13:23:13.492Z,1724
2019-01-22T13:24:24.071Z,1692
2019-01-22T13:25:34.153Z,1672
2019-01-22T13:26:44.136Z,1644
2019-01-22T13:27:54.117Z,1588
2019-01-22T13:29:04.134Z,1524
2019-01-22T13:30:14.117Z,1472
2019-01-22T13:31:24.201Z,1432
2019-01-22T13:32:34.181Z,1408
2019-01-22T13:33:44.162Z,1376
2019-01-22T13:34:54.141Z,1332
2019-01-22T13:36:04.145Z,1288
2019-01-22T13:37:14.282Z,1256
2019-01-22T13:38:24.286Z,1232
2019-01-22T13:39:34.270Z,1216
2019-01-22T13:40:44.248Z,1196
2019-01-22T13:41:54.226Z,1168
2019-01-22T13:43:04.254Z,1136
2019-01-22T13:44:14.248Z,1112
2019-01-22T13:45:24.249Z,1088
2019-01-22T13:46:34.232Z,1064
2019-01-22T13:47:44.210Z,1032
2019-01-22T13:48:54.298Z,980
2019-01-22T13:50:04.275Z,956
2019-01-22T13:51:14.255Z,928
2019-01-22T13:52:24.239Z,904
2019-01-22T13:53:34.233Z,884
2019-01-22T13:54:44.312Z,860
2019-01-22T13:55:54.296Z,832
2019-01-22T13:57:04.276Z,796
2019-01-22T13:58:15.384Z,764
2019-01-22T13:59:25.370Z,744
2019-01-22T14:00:35.412Z,732
2019-01-22T14:01:45.452Z,728
2019-01-22T14:02:55.445Z,728
2019-01-22T14:04:06.974Z,708
2019-01-22T14:05:17.058Z,688
2019-01-22T14:06:27.136Z,672
2019-01-22T14:07:37.114Z,664
2019-01-22T14:08:47.094Z,664
2019-01-22T14:09:57.073Z,648
2019-01-22T14:11:07.055Z,620
2019-01-22T14:12:17.083Z,596
2019-01-22T14:13:26.807Z,588
2019-01-22T14:14:36.784Z,580
2019-01-22T14:15:46.761Z,564
2019-01-22T14:16:56.756Z,552
2019-01-22T14:18:06.792Z,544
2019-01-22T14:19:17.557Z,532
2019-01-22T14:20:27.536Z,512
2019-01-22T14:21:37.534Z,492
2019-01-22T14:22:47.516Z,476
2019-01-22T14:23:57.542Z,456
2019-01-22T14:25:07.518Z,440
2019-01-22T14:26:17.494Z,420
2019-01-22T14:27:33.192Z,408
2019-01-22T14:28:43.177Z,400
2019-01-22T14:29:53.257Z,400
2019-01-22T14:31:03.235Z,388
2019-01-22T14:32:13.213Z,376
2019-01-22T14:33:23.205Z,364
2019-01-22T14:34:33.182Z,348
2019-01-22T14:35:43.221Z,328
2019-01-22T14:36:53.208Z,308
2019-01-22T14:38:03.198Z,292
2019-01-22T14:39:13.196Z,276
2019-01-22T14:40:23.177Z,268
2019-01-22T14:41:33.207Z,260
2019-01-22T14:42:43.199Z,252
2019-01-22T14:43:53.186Z,244
2019-01-22T14:45:03.165Z,236
2019-01-22T14:46:13.154Z,228
2019-01-22T14:47:23.238Z,212
2019-01-22T14:48:33.218Z,200
2019-01-22T14:49:43.199Z,188
2019-01-22T14:50:53.179Z,180
2019-01-22T14:52:03.170Z,168
2019-01-22T14:53:13.158Z,160
2019-01-22T14:54:23.139Z,152
2019-01-22T14:55:33.119Z,148
2019-01-22T14:56:42.846Z,140
2019-01-22T14:57:52.822Z,132
2019-01-22T14:59:02.899Z,124
2019-01-22T15:00:12.876Z,116
2019-01-22T15:01:22.856Z,104
2019-01-22T15:02:32.830Z,96
2019-01-22T15:03:48.351Z,88
2019-01-22T15:04:58.382Z,84
2019-01-22T15:06:08.358Z,80
2019-01-22T15:07:18.336Z,72
2019-01-22T15:08:28.312Z,72
2019-01-22T15:09:38.297Z,64
2019-01-22T15:10:48.374Z,56
2019-01-22T15:11:58.352Z,52
2019-01-22T15:13:08.324Z,48
2019-01-22T15:14:18.310Z,44
2019-01-22T15:15:28.289Z,40
2019-01-22T15:16:38.265Z,36
2019-01-22T15:17:48.249Z,32
2019-01-22T15:18:58.240Z,28
2019-01-22T15:20:08.507Z,28
2019-01-22T15:21:18.487Z,24
2019-01-22T15:22:28.523Z,24
2019-01-22T15:23:38.500Z,20
2019-01-22T15:24:48.477Z,16
2019-01-22T15:25:58.452Z,12
2019-01-22T15:27:08.432Z,12
2019-01-22T15:28:18.500Z,12
2019-01-22T15:29:28.478Z,8
2019-01-22T15:30:37.987Z,8
2019-01-22T15:31:47.963Z,8
2019-01-22T15:32:57.946Z,8
2019-01-22T15:34:08.032Z,4
2019-01-22T15:35:18.009Z,4
2019-01-22T15:36:27.996Z,8
2019-01-22T15:37:37.720Z,4
2019-01-22T15:38:47.696Z,4
2019-01-22T15:40:03.364Z,0
2019-01-22T15:41:13.345Z,0
2019-01-22T15:42:23.329Z,4
2019-01-22T15:43:33.311Z,4
2019-01-22T15:44:43.297Z,4
2019-01-22T15:45:53.421Z,4
2019-01-22T15:47:03.396Z,0
2019-01-22T15:48:13.373Z,0
2019-01-22T15:49:23.357Z,0
2019-01-22T15:50:33.336Z,0
2019-01-22T15:51:43.362Z,0
2019-01-22T15:52:53.387Z,0
2019-01-22T15:54:03.411Z,0
2019-01-22T15:55:13.388Z,0
2019-01-22T15:56:23.365Z,0
2019-01-22T15:57:33.444Z,0
2019-01-22T15:58:43.420Z,0
2019-01-22T15:59:53.403Z,0
2019-01-22T16:01:03.379Z,0
2019-01-22T16:02:13.357Z,0
2019-01-22T16:03:23.824Z,0
2019-01-22T16:04:33.804Z,0
2019-01-22T16:05:43.776Z,0
2019-01-22T16:06:53.751Z,0
2019-01-22T16:08:03.728Z,0
2019-01-22T16:09:14.368Z,0
2019-01-22T16:10:24.349Z,0
2019-01-22T16:11:34.323Z,0
2019-01-22T16:12:44.299Z,0
2019-01-22T16:13:55.300Z,0
2019-01-22T16:15:05.714Z,0
2019-01-22T16:16:15.785Z,0
2019-01-22T16:17:25.766Z,0
2019-01-22T16:18:35.751Z,0
2019-01-22T16:19:45.727Z,0
2019-01-22T16:20:55.713Z,0
2019-01-22T16:22:05.435Z,0
2019-01-22T16:23:15.419Z,0
2019-01-22T16:24:25.393Z,0
2019-01-22T16:25:35.373Z,0
2019-01-22T16:26:45.450Z,0
2019-01-22T16:28:02.229Z,0
2019-01-22T16:29:12.214Z,0
2019-01-22T16:30:22.190Z,0
2019-01-22T16:31:32.173Z,0